Time;durP1;ratioP1;P1;durP2;ratioP2;P2;SDS_P1;SDS_P2;PMS_P1;PMS_P2;Temp;Humidity;BMP_temperature;BMP_pressure;BME280_temperature;BME280_humidity;BME280_pressure;Samples;Min_cycle;Max_cycle;Signal;HPM_P1;HPM_P2
2021/05/27 00:01:47;;;;;;;;;;;9.60;1.00;;;;;;5010064;28;19948;-67
2021/05/27 00:04:12;;;;;;;;;;;9.50;1.00;;;;;;5009681;28;19915;-68
2021/05/27 00:06:37;;;;;;;;;;;9.50;1.00;;;;;;5008208;28;19917;-68
2021/05/27 00:09:03;;;;;;;;;;;9.50;1.00;;;;;;5009625;28;19921;-70
2021/05/27 00:11:31;;;;;;;;;;;9.50;1.00;;;;;;5010641;28;19910;-67
2021/05/27 00:13:56;;;;;;;;;;;9.40;1.00;;;;;;5010333;28;19909;-68
2021/05/27 00:16:22;;;;;;;;;;;9.50;1.00;;;;;;5010445;28;20570;-67
2021/05/27 00:18:51;;;;;;;;;;;9.50;1.00;;;;;;5009557;28;19925;-69
2021/05/27 00:21:17;;;;;;;;;;;9.50;1.00;;;;;;5009121;28;19913;-69
2021/05/27 00:23:43;;;;;;;;;;;9.40;1.00;;;;;;5009858;28;19916;-70
2021/05/27 00:26:08;;;;;;;;;;;9.40;1.00;;;;;;5009808;28;19932;-71
2021/05/27 00:28:34;;;;;;;;;;;9.40;1.00;;;;;;5010092;28;19910;-69
2021/05/27 00:30:59;;;;;;;;;;;9.40;1.00;;;;;;5009725;28;20016;-70
2021/05/27 00:33:25;;;;;;;;;;;9.40;1.00;;;;;;5009092;28;19921;-70
2021/05/27 00:35:50;;;;;;;;;;;9.40;1.00;;;;;;5009691;28;20517;-70
2021/05/27 00:38:15;;;;;;;;;;;9.40;1.00;;;;;;5008965;28;19917;-69
2021/05/27 00:40:41;;;;;;;;;;;9.40;1.00;;;;;;5009296;28;19917;-70
2021/05/27 00:43:06;;;;;;;;;;;9.40;1.00;;;;;;5009745;28;19924;-69
2021/05/27 00:45:32;;;;;;;;;;;9.40;1.00;;;;;;5009704;28;19920;-68
2021/05/27 00:47:58;;;;;;;;;;;9.40;1.00;;;;;;5009273;28;20345;-68
2021/05/27 00:50:24;;;;;;;;;;;9.40;1.00;;;;;;5008735;28;19909;-67
2021/05/27 00:52:50;;;;;;;;;;;9.40;1.00;;;;;;5009335;28;20250;-69
2021/05/27 00:55:17;;;;;;;;;;;9.40;1.00;;;;;;5009658;28;19924;-67
2021/05/27 00:57:43;;;;;;;;;;;9.40;1.00;;;;;;5009679;28;20357;-68
2021/05/27 01:00:10;;;;;;;;;;;9.30;1.00;;;;;;5007849;28;19909;-68
2021/05/27 01:02:35;;;;;;;;;;;9.30;1.00;;;;;;5008606;28;19932;-68
2021/05/27 01:05:02;;;;;;;;;;;9.30;1.00;;;;;;5007480;28;19993;-69
2021/05/27 01:07:28;;;;;;;;;;;9.20;1.00;;;;;;5005929;28;20088;-69
2021/05/27 01:09:53;;;;;;;;;;;9.30;1.00;;;;;;5009182;28;19988;-69
2021/05/27 01:12:19;;;;;;;;;;;9.30;1.00;;;;;;5009091;28;19924;-69
2021/05/27 01:17:29;;;;;;;;;;;9.20;1.00;;;;;;5006614;28;19921;-69
2021/05/27 01:19:54;;;;;;;;;;;9.30;1.00;;;;;;5008058;28;19913;-69
2021/05/27 01:22:20;;;;;;;;;;;9.30;1.00;;;;;;5007949;28;19910;-69
2021/05/27 01:24:46;;;;;;;;;;;9.30;1.00;;;;;;5008742;28;20004;-69
2021/05/27 01:27:12;;;;;;;;;;;9.30;1.00;;;;;;5009134;28;19920;-70
2021/05/27 01:29:38;;;;;;;;;;;9.20;1.00;;;;;;5008210;28;19913;-69
2021/05/27 01:32:03;;;;;;;;;;;9.30;1.00;;;;;;5008639;28;19921;-68
2021/05/27 01:34:29;;;;;;;;;;;9.30;1.00;;;;;;5007663;28;20421;-68
2021/05/27 01:36:54;;;;;;;;;;;9.20;1.00;;;;;;5008182;28;20278;-68
2021/05/27 01:39:20;;;;;;;;;;;9.20;1.00;;;;;;5007601;28;19918;-68
2021/05/27 01:41:48;;;;;;;;;;;9.30;1.00;;;;;;5008538;28;19952;-68
2021/05/27 01:44:14;;;;;;;;;;;9.20;1.00;;;;;;5006987;28;19922;-68
2021/05/27 01:46:40;;;;;;;;;;;9.20;1.00;;;;;;5007222;28;19913;-68
2021/05/27 01:49:05;;;;;;;;;;;9.20;1.00;;;;;;5007225;28;20302;-69
2021/05/27 01:51:31;;;;;;;;;;;9.10;1.00;;;;;;5008156;28;20017;-68
2021/05/27 01:53:56;;;;;;;;;;;9.10;1.00;;;;;;5008881;28;19917;-68
2021/05/27 01:56:22;;;;;;;;;;;9.10;1.00;;;;;;5008621;28;19914;-67
2021/05/27 01:58:47;;;;;;;;;;;9.10;1.00;;;;;;5008564;28;19917;-68
2021/05/27 02:01:13;;;;;;;;;;;9.00;1.00;;;;;;5007824;28;19916;-69
2021/05/27 02:03:38;;;;;;;;;;;9.00;1.00;;;;;;5007689;28;20063;-68
2021/05/27 02:06:04;;;;;;;;;;;9.00;1.00;;;;;;5008016;28;20263;-68
2021/05/27 02:08:29;;;;;;;;;;;8.90;1.00;;;;;;5007928;28;19963;-68
2021/05/27 02:10:55;;;;;;;;;;;8.80;1.00;;;;;;5006452;28;19924;-68
2021/05/27 02:13:20;;;;;;;;;;;8.80;1.00;;;;;;5009092;28;19921;-68
2021/05/27 02:15:46;;;;;;;;;;;8.80;1.00;;;;;;5009088;28;19914;-69
2021/05/27 02:18:11;;;;;;;;;;;8.80;1.00;;;;;;5007854;28;19940;-68
2021/05/27 02:20:37;;;;;;;;;;;8.80;1.00;;;;;;5007625;28;20011;-68
2021/05/27 02:23:02;;;;;;;;;;;8.80;1.00;;;;;;5007979;28;20312;-69
2021/05/27 02:25:28;;;;;;;;;;;8.70;1.00;;;;;;5009002;28;19949;-68
2021/05/27 02:27:55;;;;;;;;;;;8.80;1.00;;;;;;5008662;28;19909;-68
2021/05/27 02:30:21;;;;;;;;;;;8.70;1.00;;;;;;5008181;28;19909;-69
2021/05/27 02:32:46;;;;;;;;;;;8.70;1.00;;;;;;5009173;28;20460;-68
2021/05/27 02:35:12;;;;;;;;;;;8.80;1.00;;;;;;5009229;28;19941;-68
2021/05/27 02:37:38;;;;;;;;;;;8.80;1.00;;;;;;5008427;28;19918;-68
2021/05/27 02:40:04;;;;;;;;;;;8.70;1.00;;;;;;5007591;28;19909;-68
2021/05/27 02:42:29;;;;;;;;;;;8.70;1.00;;;;;;5008349;28;19971;-69
2021/05/27 02:44:55;;;;;;;;;;;8.70;1.00;;;;;;5007768;28;20315;-68
2021/05/27 02:47:21;;;;;;;;;;;8.60;1.00;;;;;;5008678;28;19909;-69
2021/05/27 02:49:47;;;;;;;;;;;8.60;1.00;;;;;;5007663;28;20347;-70
2021/05/27 02:52:12;;;;;;;;;;;8.60;1.00;;;;;;5007713;28;19964;-69
2021/05/27 02:54:38;;;;;;;;;;;8.70;1.00;;;;;;5008195;28;19940;-68
2021/05/27 02:57:03;;;;;;;;;;;8.70;1.00;;;;;;5008005;28;19909;-69
2021/05/27 02:59:29;;;;;;;;;;;8.70;1.00;;;;;;5006960;28;19913;-69
2021/05/27 03:01:54;;;;;;;;;;;8.70;1.00;;;;;;5007762;28;19920;-69
2021/05/27 03:04:20;;;;;;;;;;;8.70;1.00;;;;;;5006917;28;20357;-70
2021/05/27 03:06:46;;;;;;;;;;;8.70;1.00;;;;;;5006703;28;19924;-69
2021/05/27 03:09:11;;;;;;;;;;;8.60;1.00;;;;;;5007298;28;20457;-69
2021/05/27 03:11:37;;;;;;;;;;;8.60;1.00;;;;;;5007250;28;20332;-69
2021/05/27 03:14:03;;;;;;;;;;;8.60;1.00;;;;;;5009062;28;19910;-71
2021/05/27 03:16:28;;;;;;;;;;;8.70;1.00;;;;;;5007494;28;20004;-68
2021/05/27 03:18:54;;;;;;;;;;;8.60;1.00;;;;;;5006670;28;19921;-68
2021/05/27 03:21:19;;;;;;;;;;;8.60;1.00;;;;;;5006830;28;19910;-69
2021/05/27 03:23:45;;;;;;;;;;;8.60;1.00;;;;;;5010287;28;19996;-68
2021/05/27 03:26:10;;;;;;;;;;;8.60;1.00;;;;;;5011815;28;20228;-68
2021/05/27 03:28:36;;;;;;;;;;;8.50;1.00;;;;;;5011483;28;19910;-69
2021/05/27 03:31:01;;;;;;;;;;;8.50;1.00;;;;;;5011092;28;20382;-70
2021/05/27 03:33:27;;;;;;;;;;;8.50;1.00;;;;;;5010504;28;20012;-68
2021/05/27 03:35:52;;;;;;;;;;;8.60;1.00;;;;;;5011105;28;19913;-69
2021/05/27 03:38:18;;;;;;;;;;;8.60;1.00;;;;;;5010683;28;19996;-69
2021/05/27 03:40:43;;;;;;;;;;;8.70;1.00;;;;;;5010865;28;19909;-68
2021/05/27 03:43:09;;;;;;;;;;;8.70;1.00;;;;;;5010666;28;20036;-69
2021/05/27 03:45:35;;;;;;;;;;;8.70;1.00;;;;;;5011399;28;19930;-69
2021/05/27 03:48:01;;;;;;;;;;;8.70;1.00;;;;;;5010944;28;20239;-69
2021/05/27 03:50:28;;;;;;;;;;;8.70;1.00;;;;;;5010586;28;19910;-70
2021/05/27 03:52:53;;;;;;;;;;;8.80;1.00;;;;;;5010488;28;20001;-68
2021/05/27 03:55:20;;;;;;;;;;;8.80;1.00;;;;;;5010966;28;20011;-68
2021/05/27 03:57:47;;;;;;;;;;;8.80;1.00;;;;;;5011264;28;19920;-69
2021/05/27 04:02:59;;;;;;;;;;;8.80;1.00;;;;;;5011022;28;20048;-69
2021/05/27 04:08:13;;;;;;;;;;;8.90;1.00;;;;;;4973327;28;19917;-69
2021/05/27 04:10:39;;;;;;;;;;;8.90;1.00;;;;;;5010226;28;19914;-71
2021/05/27 04:13:04;;;;;;;;;;;8.80;1.00;;;;;;5011410;28;19916;-68
2021/05/27 04:15:32;;;;;;;;;;;8.80;1.00;;;;;;5010253;28;19936;-69
2021/05/27 04:18:02;;;;;;;;;;;8.80;1.00;;;;;;5010504;28;19921;-68
2021/05/27 04:20:34;;;;;;;;;;;8.70;1.00;;;;;;5009560;28;20991;-70
2021/05/27 04:23:00;;;;;;;;;;;8.80;1.00;;;;;;5010220;28;19913;-68
2021/05/27 04:25:27;;;;;;;;;;;8.80;1.00;;;;;;5010431;28;19910;-70
2021/05/27 04:27:53;;;;;;;;;;;8.80;1.00;;;;;;5010361;28;19967;-68
2021/05/27 04:30:20;;;;;;;;;;;8.90;1.00;;;;;;5009826;28;19914;-68
2021/05/27 04:32:59;;;;;;;;;;;8.90;1.00;;;;;;5009576;28;19921;-70
2021/05/27 04:35:25;;;;;;;;;;;8.90;1.00;;;;;;5008809;28;19909;-69
2021/05/27 04:37:50;;;;;;;;;;;8.90;1.00;;;;;;5010211;28;19917;-69
2021/05/27 04:40:16;;;;;;;;;;;8.90;1.00;;;;;;5009542;28;19909;-69
2021/05/27 04:42:41;;;;;;;;;;;9.00;1.00;;;;;;5008571;28;19943;-70
2021/05/27 04:45:08;;;;;;;;;;;9.00;1.00;;;;;;5008952;28;19943;-68
2021/05/27 04:47:33;;;;;;;;;;;9.00;1.00;;;;;;5009320;28;20063;-68
2021/05/27 04:49:59;;;;;;;;;;;9.10;1.00;;;;;;5009097;28;20389;-67
2021/05/27 04:52:24;;;;;;;;;;;9.20;1.00;;;;;;5007156;28;20028;-68
2021/05/27 04:54:50;;;;;;;;;;;9.20;1.00;;;;;;5009841;28;19913;-72
2021/05/27 04:57:15;;;;;;;;;;;9.20;1.00;;;;;;5010066;28;19917;-71
2021/05/27 04:59:41;;;;;;;;;;;9.30;1.00;;;;;;5008867;28;19975;-71
2021/05/27 05:02:06;;;;;;;;;;;9.30;1.00;;;;;;5009782;28;19918;-69
2021/05/27 05:04:32;;;;;;;;;;;9.20;1.00;;;;;;5008696;28;20056;-68
2021/05/27 05:06:57;;;;;;;;;;;9.30;1.00;;;;;;5008608;28;20028;-70
2021/05/27 05:09:22;;;;;;;;;;;9.40;1.00;;;;;;5009221;28;20170;-69
2021/05/27 05:11:48;;;;;;;;;;;9.40;1.00;;;;;;5008625;28;19914;-66
2021/05/27 05:14:14;;;;;;;;;;;9.40;1.00;;;;;;5008097;28;19998;-66
2021/05/27 05:16:39;;;;;;;;;;;9.50;1.00;;;;;;5007386;28;20255;-66
2021/05/27 05:19:04;;;;;;;;;;;9.50;1.00;;;;;;5007024;28;20371;-66
2021/05/27 05:21:30;;;;;;;;;;;9.50;1.00;;;;;;5006957;28;19962;-69
2021/05/27 05:23:55;;;;;;;;;;;9.60;1.00;;;;;;5009511;28;19966;-67
2021/05/27 05:26:21;;;;;;;;;;;9.70;1.00;;;;;;5009225;28;19924;-65
2021/05/27 05:28:46;;;;;;;;;;;9.80;1.00;;;;;;5008883;28;19923;-66
2021/05/27 05:31:12;;;;;;;;;;;9.90;1.00;;;;;;5007580;28;20008;-67
2021/05/27 05:33:37;;;;;;;;;;;10.00;1.00;;;;;;5007351;28;20021;-66
2021/05/27 05:36:03;;;;;;;;;;;10.10;1.00;;;;;;5008142;28;19913;-66
2021/05/27 05:38:29;;;;;;;;;;;10.20;1.00;;;;;;5007988;28;19922;-66
2021/05/27 05:40:54;;;;;;;;;;;10.30;1.00;;;;;;5007952;28;19914;-66
2021/05/27 05:43:19;;;;;;;;;;;10.40;1.00;;;;;;5008954;28;19909;-67
2021/05/27 05:45:45;;;;;;;;;;;10.50;1.00;;;;;;5008855;28;19917;-67
2021/05/27 05:48:10;;;;;;;;;;;10.50;1.00;;;;;;5013207;28;19914;-68
2021/05/27 05:50:46;;;;;;;;;;;10.40;1.00;;;;;;5006834;28;19921;-69
2021/05/27 05:53:12;;;;;;;;;;;10.50;1.00;;;;;;5007828;28;19913;-70
2021/05/27 05:55:38;;;;;;;;;;;10.40;1.00;;;;;;5006998;28;19991;-68
2021/05/27 05:58:04;;;;;;;;;;;10.40;1.00;;;;;;5008014;28;19926;-70
2021/05/27 06:00:30;;;;;;;;;;;10.40;1.00;;;;;;5007433;28;19948;-68
2021/05/27 06:02:55;;;;;;;;;;;10.50;1.00;;;;;;5006858;28;19932;-67
2021/05/27 06:05:21;;;;;;;;;;;10.80;1.00;;;;;;5007208;28;19917;-68
2021/05/27 06:07:46;;;;;;;;;;;11.00;1.00;;;;;;5006925;28;20126;-69
2021/05/27 06:10:12;;;;;;;;;;;11.30;99.90;;;;;;5008241;28;19960;-68
2021/05/27 06:12:39;;;;;;;;;;;11.60;99.90;;;;;;5005633;28;19918;-68
2021/05/27 06:15:05;;;;;;;;;;;11.90;1.00;;;;;;5008165;28;19985;-69
2021/05/27 06:17:31;;;;;;;;;;;12.10;1.00;;;;;;5006777;28;19914;-68
2021/05/27 06:19:56;;;;;;;;;;;12.10;1.00;;;;;;5006397;28;20370;-70
2021/05/27 06:22:22;;;;;;;;;;;12.00;1.00;;;;;;5006753;28;19921;-69
2021/05/27 06:24:47;;;;;;;;;;;11.90;1.00;;;;;;5007055;28;19921;-69
2021/05/27 06:27:12;;;;;;;;;;;11.80;1.00;;;;;;5007740;28;20401;-70
2021/05/27 06:29:38;;;;;;;;;;;11.70;1.00;;;;;;5006542;28;20021;-68
2021/05/27 06:32:04;;;;;;;;;;;11.60;1.00;;;;;;5007020;28;20049;-69
2021/05/27 06:34:29;;;;;;;;;;;11.50;99.90;;;;;;5007211;28;19913;-69
2021/05/27 06:36:55;;;;;;;;;;;11.50;94.90;;;;;;5007083;28;20477;-70
2021/05/27 06:39:20;;;;;;;;;;;11.60;99.90;;;;;;5007644;28;19917;-68
2021/05/27 06:41:46;;;;;;;;;;;11.70;99.90;;;;;;5006602;28;19932;-70
2021/05/27 06:44:11;;;;;;;;;;;11.80;1.00;;;;;;5006347;28;19993;-70
2021/05/27 06:46:37;;;;;;;;;;;11.90;99.90;;;;;;5004579;28;19945;-70
2021/05/27 06:49:04;;;;;;;;;;;12.00;99.90;;;;;;5005302;28;20000;-68
2021/05/27 06:51:30;;;;;;;;;;;11.90;99.90;;;;;;5005322;28;20386;-70
2021/05/27 06:53:55;;;;;;;;;;;11.80;99.90;;;;;;5006258;28;19928;-70
2021/05/27 06:56:21;;;;;;;;;;;11.60;1.00;;;;;;5006397;28;20297;-69
2021/05/27 06:58:46;;;;;;;;;;;11.70;99.90;;;;;;5008954;28;20004;-69
2021/05/27 07:01:12;;;;;;;;;;;11.70;1.00;;;;;;5009758;28;20638;-69
2021/05/27 07:03:37;;;;;;;;;;;11.70;5.80;;;;;;5007171;28;19917;-68
2021/05/27 07:06:05;;;;;;;;;;;11.80;99.90;;;;;;5009844;28;20398;-70
2021/05/27 07:08:31;;;;;;;;;;;12.00;22.70;;;;;;5010085;28;19921;-68
2021/05/27 07:10:57;;;;;;;;;;;12.20;1.00;;;;;;5009443;28;19970;-69
2021/05/27 07:13:22;;;;;;;;;;;12.20;99.90;;;;;;5010295;28;19914;-69
2021/05/27 07:15:48;;;;;;;;;;;12.20;1.00;;;;;;5009939;28;20386;-70
2021/05/27 07:18:13;;;;;;;;;;;12.40;1.00;;;;;;5009021;28;20302;-69
2021/05/27 07:20:39;;;;;;;;;;;12.60;1.00;;;;;;5009225;28;20402;-69
2021/05/27 07:23:04;;;;;;;;;;;12.80;1.00;;;;;;5009519;28;19917;-69
2021/05/27 07:25:30;;;;;;;;;;;12.90;99.90;;;;;;5010715;28;19925;-69
2021/05/27 07:27:56;;;;;;;;;;;13.10;27.60;;;;;;5011488;28;19917;-68
2021/05/27 07:30:23;;;;;;;;;;;13.70;1.00;;;;;;5010460;28;19948;-69
2021/05/27 07:32:49;;;;;;;;;;;15.00;99.90;;;;;;5009562;28;19920;-71
2021/05/27 07:35:14;;;;;;;;;;;16.50;1.00;;;;;;5009709;28;20279;-69
2021/05/27 07:37:40;;;;;;;;;;;17.50;1.00;;;;;;5008982;28;19914;-70
2021/05/27 07:40:06;;;;;;;;;;;17.40;99.90;;;;;;5009580;28;19921;-69
2021/05/27 07:42:32;;;;;;;;;;;16.60;99.90;;;;;;5010962;28;20477;-69
2021/05/27 07:44:58;;;;;;;;;;;15.70;99.90;;;;;;5010125;28;20003;-68
2021/05/27 07:47:24;;;;;;;;;;;14.90;99.90;;;;;;5010240;28;19996;-70
2021/05/27 07:49:49;;;;;;;;;;;14.20;1.00;;;;;;5009761;28;19957;-68
2021/05/27 07:52:15;;;;;;;;;;;14.30;1.00;;;;;;5010229;28;20357;-70
2021/05/27 07:54:41;;;;;;;;;;;14.10;1.00;;;;;;5011080;28;19913;-68
2021/05/27 07:57:06;;;;;;;;;;;14.30;1.00;;;;;;5010133;28;20333;-69
2021/05/27 07:59:32;;;;;;;;;;;14.90;1.00;;;;;;5009458;28;20485;-69
2021/05/27 08:01:57;;;;;;;;;;;15.90;99.90;;;;;;5009916;28;19967;-69
2021/05/27 08:04:23;;;;;;;;;;;15.90;99.90;;;;;;5009167;28;20398;-69
2021/05/27 08:06:48;;;;;;;;;;;17.20;99.90;;;;;;5009415;28;20000;-70
2021/05/27 08:09:14;;;;;;;;;;;19.10;99.90;;;;;;5008816;28;19948;-69
2021/05/27 08:11:42;;;;;;;;;;;20.70;99.90;;;;;;5010079;28;19921;-69
2021/05/27 08:14:08;;;;;;;;;;;21.10;99.90;;;;;;5010056;28;20243;-70
2021/05/27 08:16:34;;;;;;;;;;;21.80;99.90;;;;;;5009589;28;19932;-69
2021/05/27 08:19:00;;;;;;;;;;;22.70;99.90;;;;;;5008874;28;19974;-69
2021/05/27 08:21:26;;;;;;;;;;;;;;;;;;5008586;28;19913;-71
2021/05/27 08:23:51;;;;;;;;;;;26.00;99.90;;;;;;5009441;28;19997;-70
2021/05/27 08:26:17;;;;;;;;;;;26.90;99.90;;;;;;5009303;28;19917;-69
2021/05/27 08:28:42;;;;;;;;;;;28.60;99.90;;;;;;5008607;28;19922;-69
2021/05/27 08:31:08;;;;;;;;;;;30.30;99.90;;;;;;5008442;28;19921;-69
2021/05/27 08:33:33;;;;;;;;;;;30.60;99.90;;;;;;5008180;28;20071;-69
2021/05/27 08:35:59;;;;;;;;;;;30.10;99.90;;;;;;5008403;28;19913;-68
2021/05/27 08:38:24;;;;;;;;;;;27.00;99.90;;;;;;5009362;28;19940;-69
2021/05/27 08:40:52;;;;;;;;;;;25.90;99.90;;;;;;5009157;28;20032;-68
2021/05/27 08:43:20;;;;;;;;;;;25.90;99.90;;;;;;5009518;28;19913;-70
2021/05/27 08:45:47;;;;;;;;;;;27.50;99.90;;;;;;5010259;28;20762;-68
2021/05/27 08:48:14;;;;;;;;;;;27.60;99.90;;;;;;5009006;28;19921;-69
2021/05/27 08:50:43;;;;;;;;;;;26.30;99.90;;;;;;5007122;28;20000;-67
2021/05/27 08:53:09;;;;;;;;;;;26.90;99.90;;;;;;5005858;28;19928;-70
2021/05/27 08:55:35;;;;;;;;;;;28.30;99.90;;;;;;5008154;28;20278;-68
2021/05/27 08:58:01;;;;;;;;;;;29.30;99.90;;;;;;5008119;28;19923;-70
2021/05/27 09:00:26;;;;;;;;;;;30.40;99.90;;;;;;5007733;28;20307;-68
2021/05/27 09:03:02;;;;;;;;;;;31.00;99.90;;;;;;5007207;28;20382;-68
2021/05/27 09:05:32;;;;;;;;;;;30.80;99.90;;;;;;5007103;28;20393;-72
2021/05/27 09:07:58;;;;;;;;;;;30.90;99.90;;;;;;5006494;28;19922;-69
2021/05/27 09:10:40;;;;;;;;;;;28.10;99.90;;;;;;5008430;28;20124;-69
2021/05/27 09:13:16;;;;;;;;;;;26.80;99.90;;;;;;5009749;28;19918;-71
2021/05/27 09:15:42;;;;;;;;;;;26.00;99.90;;;;;;5010512;28;19917;-69
2021/05/27 09:18:08;;;;;;;;;;;25.00;99.90;;;;;;5008273;28;20374;-69
2021/05/27 09:20:33;;;;;;;;;;;24.80;99.40;;;;;;5007258;28;19913;-71
2021/05/27 09:23:06;;;;;;;;;;;23.30;94.10;;;;;;5008360;28;19914;-68
2021/05/27 09:25:32;;;;;;;;;;;21.90;88.70;;;;;;5009082;28;20343;-70
2021/05/27 09:27:58;;;;;;;;;;;20.70;81.20;;;;;;5000816;28;19922;-69
2021/05/27 09:30:24;;;;;;;;;;;19.80;78.20;;;;;;5008316;28;19928;-68
2021/05/27 09:32:50;;;;;;;;;;;20.20;86.60;;;;;;5008250;28;20347;-70
2021/05/27 09:35:16;;;;;;;;;;;21.50;90.90;;;;;;5008481;28;19917;-69
2021/05/27 09:37:45;;;;;;;;;;;22.40;92.80;;;;;;5008041;28;19917;-68
2021/05/27 09:40:11;;;;;;;;;;;22.50;92.90;;;;;;5000961;28;19924;-69
2021/05/27 09:42:49;;;;;;;;;;;21.70;89.70;;;;;;5008731;28;19913;-69
2021/05/27 09:45:18;;;;;;;;;;;20.90;86.20;;;;;;5008852;28;20367;-71
2021/05/27 09:47:43;;;;;;;;;;;20.30;83.00;;;;;;5008311;28;19936;-69
2021/05/27 09:50:09;;;;;;;;;;;19.60;79.40;;;;;;5007619;28;19997;-71
2021/05/27 09:52:38;;;;;;;;;;;19.30;80.80;;;;;;5006673;28;20502;-70
2021/05/27 09:55:07;;;;;;;;;;;20.00;88.10;;;;;;5001049;28;19935;-70
2021/05/27 09:57:33;;;;;;;;;;;22.10;93.80;;;;;;5008508;28;20310;-70
2021/05/27 09:59:58;;;;;;;;;;;24.40;99.00;;;;;;5007653;28;19996;-69
2021/05/27 10:02:24;;;;;;;;;;;27.00;99.90;;;;;;5007698;28;19917;-70
2021/05/27 10:04:55;;;;;;;;;;;28.60;99.90;;;;;;5006695;28;20278;-69
2021/05/27 10:07:40;;;;;;;;;;;27.40;99.30;;;;;;4997837;28;19917;-71
2021/05/27 10:10:07;;;;;;;;;;;26.90;96.50;;;;;;5007832;28;19914;-68
2021/05/27 10:12:37;;;;;;;;;;;28.50;97.80;;;;;;5007951;28;20306;-69
2021/05/27 10:15:03;;;;;;;;;;;28.70;95.40;;;;;;5007923;28;20052;-69
2021/05/27 10:17:28;;;;;;;;;;;29.60;94.70;;;;;;5008340;28;20016;-69
2021/05/27 10:19:54;;;;;;;;;;;30.50;93.30;;;;;;5007096;28;19921;-69
2021/05/27 10:22:19;;;;;;;;;;;31.60;91.70;;;;;;5007293;28;19916;-67
2021/05/27 10:24:46;;;;;;;;;;;32.30;87.10;;;;;;5007876;28;19921;-67
2021/05/27 10:27:11;;;;;;;;;;;31.70;75.70;;;;;;5007354;28;19917;-70
2021/05/27 10:29:37;;;;;;;;;;;32.10;72.40;;;;;;5006802;28;20378;-68
2021/05/27 10:32:03;;;;;;;;;;;31.30;59.60;;;;;;5007844;28;19936;-68
2021/05/27 10:34:48;;;;;;;;;;;27.20;43.20;;;;;;5007514;28;19944;-67
2021/05/27 10:37:17;;;;;;;;;;;26.40;39.20;;;;;;5001110;28;20324;-69
2021/05/27 10:39:43;;;;;;;;;;;25.40;33.00;;;;;;5006559;28;19928;-67
2021/05/27 10:42:09;;;;;;;;;;;25.40;31.90;;;;;;5008600;28;19913;-67
2021/05/27 10:44:34;;;;;;;;;;;26.20;34.60;;;;;;5008099;28;19945;-71
2021/05/27 10:47:00;;;;;;;;;;;27.40;37.00;;;;;;5007919;28;20343;-69
2021/05/27 10:49:38;;;;;;;;;;;28.00;36.70;;;;;;5006352;28;19914;-69
2021/05/27 10:52:22;;;;;;;;;;;28.80;37.10;;;;;;5003473;28;19917;-70
2021/05/27 10:54:47;;;;;;;;;;;28.20;31.80;;;;;;5001709;28;19924;-67
2021/05/27 10:57:32;;;;;;;;;;;26.90;26.90;;;;;;5007382;28;19921;-68
2021/05/27 10:59:58;;;;;;;;;;;26.20;25.30;;;;;;5007007;28;19925;-70
2021/05/27 11:02:23;;;;;;;;;;;25.90;23.60;;;;;;5006460;28;19909;-71
2021/05/27 11:04:49;;;;;;;;;;;26.20;24.30;;;;;;5005199;28;19925;-69
2021/05/27 11:07:22;;;;;;;;;;;26.90;26.70;;;;;;5006147;28;19921;-70
2021/05/27 11:09:48;;;;;;;;;;;27.70;27.80;;;;;;5005487;28;19971;-70
2021/05/27 11:12:16;;;;;;;;;;;27.90;28.10;;;;;;5005369;28;20620;-69
2021/05/27 11:14:45;;;;;;;;;;;28.30;27.90;;;;;;5006760;28;19914;-69
2021/05/27 11:17:20;;;;;;;;;;;28.60;27.70;;;;;;5006369;28;19913;-69
2021/05/27 11:25:12;;;;;;;;;;;24.10;13.40;;;;;;5000850;28;19913;-69
2021/05/27 11:27:48;;;;;;;;;;;22.70;10.40;;;;;;4997260;28;20316;-69
2021/05/27 11:30:18;;;;;;;;;;;21.60;8.10;;;;;;5000381;28;20530;-68
2021/05/27 11:32:44;;;;;;;;;;;21.00;8.00;;;;;;5003984;28;19918;-69
2021/05/27 11:35:10;;;;;;;;;;;20.70;8.40;;;;;;5004752;28;19914;-69
2021/05/27 11:37:36;;;;;;;;;;;20.90;11.40;;;;;;5005158;28;19925;-69
2021/05/27 11:40:03;;;;;;;;;;;21.80;14.20;;;;;;5005780;28;19945;-70
2021/05/27 11:42:29;;;;;;;;;;;22.20;15.90;;;;;;5006014;28;20076;-68
2021/05/27 11:44:55;;;;;;;;;;;22.40;17.80;;;;;;5008704;28;20011;-69
2021/05/27 11:47:21;;;;;;;;;;;22.40;19.00;;;;;;5010259;28;20247;-68
2021/05/27 11:50:01;;;;;;;;;;;22.20;19.40;;;;;;5006269;28;19922;-69
2021/05/27 11:52:27;;;;;;;;;;;21.60;18.80;;;;;;5009022;28;19959;-69
2021/05/27 11:54:53;;;;;;;;;;;21.90;19.90;;;;;;5009298;28;19913;-68
2021/05/27 11:57:20;;;;;;;;;;;21.40;19.10;;;;;;5008836;28;19921;-69
2021/05/27 11:59:58;;;;;;;;;;;20.70;17.90;;;;;;5008960;28;19918;-69
2021/05/27 12:02:43;;;;;;;;;;;20.20;17.10;;;;;;5009382;28;19913;-68
2021/05/27 12:05:23;;;;;;;;;;;19.60;17.60;;;;;;5002791;28;19968;-69
2021/05/27 12:08:08;;;;;;;;;;;19.20;28.90;;;;;;4945891;28;1783423;-68
2021/05/27 12:10:38;;;;;;;;;;;18.90;19.70;;;;;;5009990;28;19917;-69
2021/05/27 12:13:04;;;;;;;;;;;18.90;21.90;;;;;;5009831;28;19967;-69
2021/05/27 12:15:31;;;;;;;;;;;19.20;24.00;;;;;;5011170;28;20259;-67
2021/05/27 12:17:58;;;;;;;;;;;19.00;24.50;;;;;;5009326;28;20645;-70
2021/05/27 12:20:36;;;;;;;;;;;18.50;24.60;;;;;;5007622;28;19965;-68
2021/05/27 12:23:04;;;;;;;;;;;18.40;25.60;;;;;;5009750;28;19962;-71
2021/05/27 12:25:31;;;;;;;;;;;18.40;26.90;;;;;;5010173;28;20269;-68
2021/05/27 12:27:57;;;;;;;;;;;18.40;28.10;;;;;;5010368;28;19921;-67
2021/05/27 12:30:23;;;;;;;;;;;18.40;30.00;;;;;;5009539;28;20343;-69
2021/05/27 12:32:50;;;;;;;;;;;18.30;32.40;;;;;;5009580;28;19917;-68
2021/05/27 12:35:17;;;;;;;;;;;17.80;31.20;;;;;;5009373;28;19929;-69
2021/05/27 12:37:48;;;;;;;;;;;17.50;32.30;;;;;;5008560;28;19933;-68
2021/05/27 12:40:26;;;;;;;;;;;17.00;34.50;;;;;;5001958;28;19913;-68
2021/05/27 12:42:52;;;;;;;;;;;16.80;37.10;;;;;;5007964;28;19983;-70
2021/05/27 12:45:25;;;;;;;;;;;16.70;37.70;;;;;;5008850;28;20019;-70
2021/05/27 12:48:09;;;;;;;;;;;16.80;40.90;;;;;;5005263;28;19971;-68
2021/05/27 12:50:36;;;;;;;;;;;16.90;43.90;;;;;;5003021;28;19920;-69
2021/05/27 12:53:05;;;;;;;;;;;16.90;45.80;;;;;;5009587;28;19917;-70
2021/05/27 12:55:33;;;;;;;;;;;16.90;47.70;;;;;;5008401;28;19952;-68
2021/05/27 12:57:59;;;;;;;;;;;16.80;49.30;;;;;;5010112;28;19925;-68
2021/05/27 13:00:26;;;;;;;;;;;16.70;51.60;;;;;;5009172;28;19914;-68
2021/05/27 13:02:58;;;;;;;;;;;16.60;53.30;;;;;;5009382;28;19921;-68
2021/05/27 13:05:24;;;;;;;;;;;16.50;55.20;;;;;;5009012;28;19921;-70
2021/05/27 13:07:59;;;;;;;;;;;16.40;57.20;;;;;;5008676;28;19933;-68
2021/05/27 13:10:43;;;;;;;;;;;16.40;60.80;;;;;;5009052;28;19920;-70
2021/05/27 13:13:08;;;;;;;;;;;16.50;65.00;;;;;;5009297;28;19947;-70
2021/05/27 13:15:45;;;;;;;;;;;16.60;68.90;;;;;;5009812;28;20358;-68
2021/05/27 13:18:11;;;;;;;;;;;16.60;70.40;;;;;;5008987;28;21267;-69
2021/05/27 13:20:52;;;;;;;;;;;16.60;72.10;;;;;;5008576;28;19918;-68
2021/05/27 13:23:36;;;;;;;;;;;16.60;71.60;;;;;;5009431;28;20321;-68
2021/05/27 13:26:12;;;;;;;;;;;16.80;74.10;;;;;;5011414;28;19944;-68
2021/05/27 13:28:38;;;;;;;;;;;17.20;79.20;;;;;;5008057;28;20315;-67
2021/05/27 13:31:04;;;;;;;;;;;17.70;81.00;;;;;;5006004;28;19944;-69
2021/05/27 13:33:29;;;;;;;;;;;18.30;85.40;;;;;;5007864;28;20437;-69
2021/05/27 13:35:57;;;;;;;;;;;18.70;85.10;;;;;;5008849;28;19914;-68
2021/05/27 13:38:24;;;;;;;;;;;19.10;86.60;;;;;;5008658;28;20280;-68
2021/05/27 13:40:50;;;;;;;;;;;19.20;83.10;;;;;;5007732;28;19933;-68
2021/05/27 13:43:15;;;;;;;;;;;19.30;83.10;;;;;;5008460;28;20024;-69
2021/05/27 13:45:41;;;;;;;;;;;19.50;85.20;;;;;;5008530;28;19917;-68
2021/05/27 13:48:07;;;;;;;;;;;19.70;83.10;;;;;;5008419;28;19936;-68
2021/05/27 13:50:33;;;;;;;;;;;19.90;84.20;;;;;;5007313;28;19984;-68
2021/05/27 13:53:04;;;;;;;;;;;19.90;79.00;;;;;;5008598;28;19921;-67
2021/05/27 13:55:32;;;;;;;;;;;19.60;76.00;;;;;;5008917;28;20370;-68
2021/05/27 13:57:58;;;;;;;;;;;19.60;78.10;;;;;;5008684;28;20366;-67
2021/05/27 14:00:24;;;;;;;;;;;19.80;81.00;;;;;;5008072;28;20370;-69
2021/05/27 14:02:50;;;;;;;;;;;19.80;80.90;;;;;;5008131;28;19940;-68
2021/05/27 14:05:17;;;;;;;;;;;19.80;80.10;;;;;;5008352;28;19966;-68
2021/05/27 14:07:43;;;;;;;;;;;19.80;81.10;;;;;;5007472;28;19973;-69
2021/05/27 14:10:08;;;;;;;;;;;19.80;78.20;;;;;;5007771;28;19960;-68
2021/05/27 14:12:34;;;;;;;;;;;19.50;76.80;;;;;;5008359;28;20416;-66
2021/05/27 14:15:00;;;;;;;;;;;19.40;76.60;;;;;;5008478;28;19922;-68
2021/05/27 14:17:25;;;;;;;;;;;19.20;77.00;;;;;;5008257;28;19921;-68
2021/05/27 14:19:51;;;;;;;;;;;19.20;79.30;;;;;;5007563;28;19970;-69
2021/05/27 14:22:16;;;;;;;;;;;19.10;77.60;;;;;;5007561;28;19924;-69
2021/05/27 14:24:42;;;;;;;;;;;19.00;77.20;;;;;;5009040;28;19914;-67
2021/05/27 14:27:08;;;;;;;;;;;19.00;93.80;;;;;;5008243;28;20310;-68
2021/05/27 14:29:34;;;;;;;;;;;19.10;81.90;;;;;;5004123;28;19914;-68
2021/05/27 14:32:00;;;;;;;;;;;19.20;80.40;;;;;;5007904;28;20009;-69
2021/05/27 14:34:25;;;;;;;;;;;18.90;78.40;;;;;;5006896;28;20267;-68
2021/05/27 14:36:54;;;;;;;;;;;19.00;75.20;;;;;;5007040;28;19959;-68
2021/05/27 14:39:19;;;;;;;;;;;19.20;77.90;;;;;;5003282;28;20282;-68
2021/05/27 14:41:45;;;;;;;;;;;19.40;80.30;;;;;;5007277;28;19920;-68